Time;durP1;ratioP1;P1;durP2;ratioP2;P2;SDS_P1;SDS_P2;PMS_P1;PMS_P2;Temp;Humidity;BMP_temperature;BMP_pressure;BME280_temperature;BME280_humidity;BME280_pressure;Samples;Min_cycle;Max_cycle;Signal;HPM_P1;HPM_P2
2021/05/17 00:00:31;;;;;;;3.00;2.70;;;8.20;99.90;;;;;;5068300;28;20942;-61
2021/05/17 00:03:00;;;;;;;3.20;2.90;;;8.20;99.90;;;;;;5070942;28;20537;-61
2021/05/17 00:05:26;;;;;;;3.70;3.40;;;8.20;99.90;;;;;;5089692;28;20505;-61
2021/05/17 00:07:52;;;;;;;3.50;3.00;;;8.20;99.90;;;;;;5068821;28;20466;-61
2021/05/17 00:10:18;;;;;;;3.47;3.07;;;8.10;99.90;;;;;;5068060;28;21001;-61
2021/05/17 00:12:44;;;;;;;3.30;3.00;;;8.20;99.90;;;;;;5076249;28;20542;-61
2021/05/17 00:15:16;;;;;;;2.90;2.60;;;8.20;99.90;;;;;;5067584;28;20513;-61
2021/05/17 00:17:42;;;;;;;3.00;2.70;;;8.20;99.90;;;;;;5068154;28;20189;-62
2021/05/17 00:20:11;;;;;;;3.10;2.80;;;8.10;99.90;;;;;;5066002;28;20501;-61
2021/05/17 00:22:37;;;;;;;3.53;2.53;;;8.10;99.90;;;;;;5068179;28;20528;-63
2021/05/17 00:25:03;;;;;;;6.10;2.70;;;8.10;99.90;;;;;;5065910;28;20438;-61
2021/05/17 00:27:29;;;;;;;3.40;3.10;;;8.10;99.90;;;;;;5068797;28;20960;-61
2021/05/17 00:29:55;;;;;;;3.70;2.43;;;8.00;99.90;;;;;;5066701;28;20438;-61
2021/05/17 00:32:21;;;;;;;2.83;2.63;;;8.00;99.90;;;;;;5066894;28;20211;-61
2021/05/17 00:34:47;;;;;;;2.83;2.63;;;8.00;99.90;;;;;;5066537;28;20431;-61
2021/05/17 00:37:14;;;;;;;5.27;3.40;;;8.00;99.90;;;;;;5066049;28;20657;-61
2021/05/17 00:39:41;;;;;;;5.70;2.87;;;8.00;99.90;;;;;;5066780;28;20473;-62
2021/05/17 00:42:07;;;;;;;3.10;2.73;;;8.00;99.90;;;;;;5076457;28;20445;-62
2021/05/17 00:44:37;;;;;;;3.60;3.03;;;8.10;99.90;;;;;;5088712;28;20508;-62
2021/05/17 00:47:04;;;;;;;3.90;3.17;;;8.10;99.90;;;;;;5064959;28;20503;-62
2021/05/17 00:49:30;;;;;;;4.40;3.30;;;8.10;99.90;;;;;;5064132;28;20446;-62
2021/05/17 00:51:57;;;;;;;3.00;2.70;;;8.10;99.90;;;;;;5088891;28;20477;-62
2021/05/17 00:54:22;;;;;;;3.10;2.80;;;8.10;99.90;;;;;;5067922;28;20184;-62
2021/05/17 00:56:48;;;;;;;2.63;2.43;;;8.10;99.90;;;;;;5075106;28;20895;-62
2021/05/17 00:59:14;;;;;;;2.80;2.60;;;8.20;99.90;;;;;;5078154;28;20284;-61
2021/05/17 01:01:39;;;;;;;3.23;2.93;;;8.20;99.90;;;;;;5086372;28;20240;-61
2021/05/17 01:04:05;;;;;;;2.70;2.50;;;8.20;99.90;;;;;;5071803;28;20232;-61
2021/05/17 01:06:32;;;;;;;3.20;2.90;;;8.20;99.90;;;;;;5069208;28;20192;-62
2021/05/17 01:09:00;;;;;;;2.97;2.67;;;8.20;99.90;;;;;;5081129;28;20206;-62
2021/05/17 01:11:28;;;;;;;3.20;2.90;;;8.30;99.90;;;;;;5068239;28;20565;-62
2021/05/17 01:13:56;;;;;;;3.33;2.70;;;8.20;99.90;;;;;;5067790;28;20805;-57
2021/05/17 01:16:23;;;;;;;3.87;2.63;;;8.20;99.90;;;;;;5064610;28;20447;-61
2021/05/17 01:18:50;;;;;;;3.40;3.10;;;8.30;99.90;;;;;;5080197;28;20429;-62
2021/05/17 01:21:18;;;;;;;3.40;2.83;;;8.30;99.90;;;;;;5079734;28;20478;-61
2021/05/17 01:23:55;;;;;;;4.23;3.20;;;8.40;99.90;;;;;;5057992;28;20833;-61
2021/05/17 01:26:28;;;;;;;3.30;3.00;;;8.40;99.90;;;;;;5081899;28;20786;-61
2021/05/17 01:28:59;;;;;;;3.00;2.70;;;8.40;99.90;;;;;;5079440;28;20448;-60
2021/05/17 01:31:24;;;;;;;3.70;3.27;;;8.40;99.90;;;;;;5077670;28;20471;-56
2021/05/17 01:33:50;;;;;;;3.50;3.20;;;8.50;99.90;;;;;;5068450;28;20746;-60
2021/05/17 01:36:17;;;;;;;3.63;3.30;;;8.50;99.90;;;;;;5077421;28;20256;-61
2021/05/17 01:38:47;;;;;;;3.70;2.93;;;8.50;99.90;;;;;;5071907;28;20576;-61
2021/05/17 01:41:15;;;;;;;3.07;2.77;;;8.40;99.90;;;;;;5077500;28;20527;-61
2021/05/17 01:43:46;;;;;;;3.33;3.03;;;8.40;99.90;;;;;;5076663;28;20430;-61
2021/05/17 01:46:16;;;;;;;3.43;2.90;;;8.40;99.90;;;;;;5072040;28;20431;-61
2021/05/17 01:48:43;;;;;;;5.30;3.37;;;8.40;99.90;;;;;;5074701;28;20450;-57
2021/05/17 01:51:19;;;;;;;3.10;2.80;;;8.40;99.90;;;;;;5081726;28;20465;-61
2021/05/17 01:53:46;;;;;;;4.83;3.33;;;8.40;99.90;;;;;;5054958;28;20955;-61
2021/05/17 01:56:13;;;;;;;3.00;2.80;;;8.40;99.90;;;;;;5069299;28;20788;-62
2021/05/17 01:58:39;;;;;;;3.40;3.10;;;8.40;99.90;;;;;;5060960;28;20477;-63
2021/05/17 02:01:10;;;;;;;3.50;3.20;;;8.50;99.90;;;;;;5079699;28;20509;-61
2021/05/17 02:03:38;;;;;;;3.47;2.83;;;8.50;99.90;;;;;;5086981;28;20415;-62
2021/05/17 02:06:09;;;;;;;3.60;3.10;;;8.60;99.90;;;;;;5068108;28;20798;-63
2021/05/17 02:08:42;;;;;;;5.83;3.40;;;8.60;99.90;;;;;;5068184;28;20435;-61
2021/05/17 02:11:13;;;;;;;4.43;3.10;;;8.70;99.90;;;;;;5075293;28;20469;-62
2021/05/17 02:13:40;;;;;;;3.43;2.93;;;8.70;99.90;;;;;;5083918;28;20441;-62
2021/05/17 02:16:08;;;;;;;4.20;3.17;;;8.70;99.90;;;;;;5067197;28;20526;-59
2021/05/17 02:18:36;;;;;;;4.17;3.20;;;8.80;99.90;;;;;;5080698;28;20422;-62
2021/05/17 02:21:02;;;;;;;3.93;3.20;;;8.80;99.90;;;;;;5074818;28;20854;-62
2021/05/17 02:23:28;;;;;;;3.40;3.10;;;8.90;99.90;;;;;;5084163;28;20826;-61
2021/05/17 02:25:54;;;;;;;3.30;3.00;;;8.90;99.90;;;;;;5072069;28;20446;-61
2021/05/17 02:28:19;;;;;;;3.10;2.80;;;8.90;99.90;;;;;;5082904;28;20538;-61
2021/05/17 02:30:45;;;;;;;3.20;2.90;;;9.00;99.90;;;;;;5087073;28;20214;-61
2021/05/17 02:33:12;;;;;;;3.27;2.97;;;9.10;99.90;;;;;;5081297;28;20579;-61
2021/05/17 02:35:39;;;;;;;3.57;3.27;;;9.10;99.90;;;;;;5090037;28;20678;-61
2021/05/17 02:38:07;;;;;;;3.10;2.80;;;9.10;99.90;;;;;;5091157;28;20812;-61
2021/05/17 02:40:33;;;;;;;3.37;3.00;;;9.20;99.90;;;;;;5077985;28;20499;-57
2021/05/17 02:43:03;;;;;;;3.60;3.10;;;9.30;99.90;;;;;;5091767;28;20498;-62
2021/05/17 02:45:29;;;;;;;3.70;3.37;;;9.40;99.90;;;;;;5075495;28;20446;-59
2021/05/17 02:47:57;;;;;;;3.57;3.27;;;9.40;99.90;;;;;;5072364;28;20462;-60
2021/05/17 02:50:31;;;;;;;3.77;2.90;;;9.40;99.90;;;;;;5071114;28;20437;-62
2021/05/17 02:52:58;;;;;;;2.90;2.70;;;9.30;99.90;;;;;;5085689;28;20807;-60
2021/05/17 02:55:30;;;;;;;3.00;2.80;;;9.40;99.90;;;;;;5078543;28;20438;-61
2021/05/17 02:58:17;;;;;;;3.43;3.00;;;9.40;99.90;;;;;;5075078;28;20451;-61
2021/05/17 03:00:49;;;;;;;5.43;3.03;;;9.50;99.90;;;;;;5078391;28;20478;-58
2021/05/17 03:03:16;;;;;;;3.20;2.90;;;9.50;99.90;;;;;;5066999;28;20473;-60
2021/05/17 03:05:43;;;;;;;3.10;2.77;;;9.50;99.90;;;;;;5091265;28;20515;-61
2021/05/17 03:08:11;;;;;;;3.57;3.17;;;9.50;99.90;;;;;;5073783;28;20484;-61
2021/05/17 03:10:41;;;;;;;3.53;3.23;;;9.50;99.90;;;;;;5071127;28;20561;-61
2021/05/17 03:13:10;;;;;;;5.27;3.20;;;9.50;99.90;;;;;;5069579;28;20432;-61
2021/05/17 03:15:37;;;;;;;3.60;2.67;;;9.50;99.90;;;;;;5079697;28;21015;-60
2021/05/17 03:18:04;;;;;;;3.80;3.20;;;9.50;99.90;;;;;;5072667;28;20429;-60
2021/05/17 03:20:29;;;;;;;3.03;2.73;;;9.50;99.90;;;;;;5061184;28;20518;-60
2021/05/17 03:22:56;;;;;;;3.10;2.63;;;9.50;99.90;;;;;;5071854;28;20836;-61
2021/05/17 03:25:25;;;;;;;3.20;3.00;;;9.50;99.90;;;;;;5069417;28;20201;-60
2021/05/17 03:27:52;;;;;;;3.70;2.60;;;9.40;99.90;;;;;;5083891;28;20763;-60
2021/05/17 03:30:19;;;;;;;3.47;2.60;;;9.40;99.90;;;;;;5076059;28;20431;-61
2021/05/17 03:32:44;;;;;;;3.60;2.87;;;9.40;99.90;;;;;;5071341;28;20426;-60
2021/05/17 03:35:10;;;;;;;3.87;3.17;;;9.40;99.90;;;;;;5080751;28;20427;-60
2021/05/17 03:37:36;;;;;;;3.50;3.20;;;9.40;99.90;;;;;;5079895;28;20196;-62
2021/05/17 03:40:02;;;;;;;2.90;2.60;;;9.40;99.90;;;;;;5069234;28;20185;-57
2021/05/17 03:42:28;;;;;;;4.00;2.70;;;9.30;99.90;;;;;;5068879;28;20208;-60
2021/05/17 03:44:53;;;;;;;3.17;2.87;;;9.40;99.90;;;;;;5068758;28;20442;-61
2021/05/17 03:47:19;;;;;;;6.93;3.17;;;9.40;99.90;;;;;;5084328;28;20197;-61
2021/05/17 03:49:44;;;;;;;4.00;3.10;;;9.40;99.90;;;;;;5069458;28;20216;-61
2021/05/17 03:52:10;;;;;;;3.77;2.90;;;9.50;99.90;;;;;;5071555;28;20213;-60
2021/05/17 03:54:36;;;;;;;3.70;3.40;;;9.50;99.90;;;;;;5073738;28;20194;-61
2021/05/17 03:57:04;;;;;;;3.07;2.77;;;9.50;99.90;;;;;;5069292;28;20193;-63
2021/05/17 03:59:31;;;;;;;5.20;3.27;;;9.60;99.90;;;;;;5081280;28;20513;-60
2021/05/17 04:01:56;;;;;;;3.27;2.97;;;9.60;99.90;;;;;;5081055;28;20447;-61
2021/05/17 04:04:23;;;;;;;3.63;3.20;;;9.50;99.90;;;;;;5068485;28;20944;-61
2021/05/17 04:06:57;;;;;;;3.40;2.80;;;9.50;99.90;;;;;;5076340;28;20191;-60
2021/05/17 04:14:52;;;;;;;3.70;2.50;;;9.70;99.90;;;;;;5086754;28;20484;-61
2021/05/17 04:17:18;;;;;;;3.23;2.93;;;9.70;99.90;;;;;;5089631;28;20430;-60
2021/05/17 04:19:43;;;;;;;3.30;3.00;;;9.80;99.90;;;;;;5072292;28;20189;-61
2021/05/17 04:22:09;;;;;;;4.30;2.67;;;9.90;99.90;;;;;;5080776;28;20188;-61
2021/05/17 04:24:35;;;;;;;3.13;2.83;;;10.00;99.90;;;;;;5071397;28;20185;-60
2021/05/17 04:27:01;;;;;;;3.20;2.70;;;10.10;99.90;;;;;;5084350;28;20185;-61
2021/05/17 04:29:26;;;;;;;3.50;3.20;;;10.30;99.90;;;;;;5059546;28;20442;-61
2021/05/17 04:31:52;;;;;;;3.57;3.00;;;10.30;99.90;;;;;;5070634;28;20212;-56
2021/05/17 04:34:19;;;;;;;5.50;3.37;;;10.40;99.90;;;;;;5077086;28;20192;-54
2021/05/17 04:36:44;;;;;;;3.00;2.70;;;10.50;99.90;;;;;;5064998;28;20939;-51
2021/05/17 04:39:10;;;;;;;3.03;2.73;;;10.50;99.90;;;;;;5062702;28;20435;-58
2021/05/17 04:41:35;;;;;;;3.03;2.57;;;10.60;99.90;;;;;;5075813;28;20192;-57
2021/05/17 04:44:01;;;;;;;2.97;2.73;;;10.60;99.90;;;;;;5073635;28;20229;-62
2021/05/17 04:46:26;;;;;;;3.83;3.53;;;10.70;99.90;;;;;;5067238;28;20588;-57
2021/05/17 04:48:52;;;;;;;3.00;2.70;;;10.60;99.90;;;;;;5074298;28;20224;-57
2021/05/17 04:51:19;;;;;;;3.30;2.80;;;10.60;99.90;;;;;;5081830;28;20212;-55
2021/05/17 04:53:45;;;;;;;4.90;3.73;;;10.60;99.90;;;;;;5081121;28;20204;-57
2021/05/17 04:56:11;;;;;;;4.80;3.27;;;10.60;99.90;;;;;;5083421;28;20453;-56
2021/05/17 04:58:37;;;;;;;3.73;3.10;;;10.70;99.90;;;;;;5077135;28;20431;-58
2021/05/17 05:01:03;;;;;;;4.53;3.00;;;10.80;99.90;;;;;;5076867;28;20593;-54
2021/05/17 05:03:29;;;;;;;3.00;2.80;;;10.90;99.90;;;;;;5069025;28;20429;-58
2021/05/17 05:05:56;;;;;;;4.27;2.90;;;10.80;99.90;;;;;;5083102;28;20513;-57
2021/05/17 05:08:22;;;;;;;3.27;2.97;;;10.80;99.90;;;;;;5088447;28;20216;-58
2021/05/17 05:10:48;;;;;;;3.40;3.10;;;10.90;99.90;;;;;;5082125;28;20502;-58
2021/05/17 05:13:13;;;;;;;3.53;3.23;;;10.80;99.90;;;;;;5080753;28;20177;-53
2021/05/17 05:15:39;;;;;;;3.70;3.40;;;10.70;99.90;;;;;;5068444;28;20260;-59
2021/05/17 05:18:04;;;;;;;3.10;2.80;;;10.60;99.90;;;;;;5068130;28;20189;-56
2021/05/17 05:20:31;;;;;;;4.00;3.10;;;10.50;99.90;;;;;;5068434;28;20219;-57
2021/05/17 05:22:57;;;;;;;3.93;3.10;;;10.50;99.90;;;;;;5068671;28;20161;-55
2021/05/17 05:25:26;;;;;;;3.10;2.90;;;10.50;99.90;;;;;;5069035;28;20450;-58
2021/05/17 05:27:54;;;;;;;3.30;3.00;;;10.50;99.90;;;;;;5084976;28;21258;-57
2021/05/17 05:32:52;;;;;;;3.50;3.10;;;10.60;99.90;;;;;;5075533;28;20941;-58
2021/05/17 05:35:18;;;;;;;4.27;3.10;;;10.70;99.90;;;;;;5067979;28;20518;-57
2021/05/17 05:37:44;;;;;;;3.53;2.73;;;10.80;99.90;;;;;;5067732;28;20622;-52
2021/05/17 05:40:10;;;;;;;3.53;3.20;;;10.90;99.90;;;;;;5067661;28;20191;-57
2021/05/17 05:42:36;;;;;;;3.80;3.37;;;11.00;99.90;;;;;;5080041;28;20279;-61
2021/05/17 05:45:04;;;;;;;2.90;2.67;;;11.10;99.90;;;;;;5072061;28;20521;-55
2021/05/17 05:47:30;;;;;;;2.90;2.60;;;11.20;99.90;;;;;;5080239;28;20469;-57
2021/05/17 05:49:55;;;;;;;3.50;3.10;;;11.30;99.90;;;;;;5088042;28;20426;-59
2021/05/17 05:52:21;;;;;;;4.10;3.00;;;11.50;99.90;;;;;;5074748;28;20212;-59
2021/05/17 05:54:49;;;;;;;3.13;2.70;;;11.60;99.90;;;;;;5074320;28;20310;-55
2021/05/17 05:57:15;;;;;;;2.77;2.53;;;11.70;99.90;;;;;;5069086;28;20181;-60
2021/05/17 05:59:42;;;;;;;3.23;2.60;;;11.80;99.90;;;;;;5062980;28;20832;-59
2021/05/17 06:02:08;;;;;;;3.20;2.80;;;11.90;99.90;;;;;;5052399;28;20421;-61
2021/05/17 06:04:34;;;;;;;2.10;2.00;;;12.00;99.90;;;;;;5069703;28;20446;-61
2021/05/17 06:07:00;;;;;;;3.70;2.70;;;12.10;92.20;;;;;;5072394;28;20439;-61
2021/05/17 06:09:25;;;;;;;2.50;2.00;;;12.30;90.50;;;;;;5073024;28;20177;-59
2021/05/17 06:11:51;;;;;;;1.57;1.47;;;12.60;62.90;;;;;;5072456;28;20205;-57
2021/05/17 06:14:17;;;;;;;1.10;1.00;;;12.80;19.50;;;;;;5072162;28;20184;-59
2021/05/17 06:16:43;;;;;;;1.37;1.27;;;13.10;1.60;;;;;;5072606;28;20214;-58
2021/05/17 06:19:10;;;;;;;1.00;1.00;;;13.20;1.00;;;;;;5072662;28;20205;-57
2021/05/17 06:21:36;;;;;;;1.20;1.00;;;13.40;1.00;;;;;;5072040;28;20428;-58
2021/05/17 06:24:03;;;;;;;1.70;1.17;;;13.50;1.00;;;;;;5072187;28;20448;-56
2021/05/17 06:26:30;;;;;;;1.33;1.10;;;13.50;1.00;;;;;;5074112;28;20200;-59
2021/05/17 06:28:56;;;;;;;1.93;1.10;;;13.60;1.00;;;;;;5083402;28;20450;-56
2021/05/17 06:31:22;;;;;;;1.00;0.90;;;13.70;1.00;;;;;;5078124;28;20522;-56
2021/05/17 06:33:49;;;;;;;1.10;1.10;;;13.80;1.00;;;;;;5073937;28;20178;-56
2021/05/17 06:36:16;;;;;;;1.97;1.20;;;13.80;1.00;;;;;;5075106;28;20439;-57
2021/05/17 06:38:43;;;;;;;1.30;1.20;;;13.90;1.00;;;;;;5073143;28;20437;-59
2021/05/17 06:41:09;;;;;;;1.03;1.03;;;13.90;1.00;;;;;;5067236;28;20447;-59
2021/05/17 06:43:35;;;;;;;1.30;1.20;;;13.90;1.00;;;;;;5074852;28;20438;-55
2021/05/17 06:46:09;;;;;;;1.47;1.30;;;13.90;1.00;;;;;;5069610;28;20438;-57
2021/05/17 06:48:42;;;;;;;1.30;1.20;;;13.90;1.00;;;;;;5080565;28;20809;-59
2021/05/17 06:51:15;;;;;;;1.90;1.30;;;14.00;1.00;;;;;;5082197;28;20458;-60
2021/05/17 06:53:41;;;;;;;1.47;1.10;;;14.00;1.00;;;;;;5082246;28;21207;-64
2021/05/17 06:56:12;;;;;;;1.30;1.20;;;14.10;1.00;;;;;;5080501;28;20419;-60
2021/05/17 06:58:52;;;;;;;1.97;1.60;;;14.20;1.00;;;;;;5078632;28;20760;-59
2021/05/17 07:01:18;;;;;;;1.13;1.10;;;14.40;1.00;;;;;;5053146;28;20476;-59
2021/05/17 07:03:44;;;;;;;1.87;1.73;;;14.50;1.00;;;;;;5056623;28;20417;-57
2021/05/17 07:06:12;;;;;;;1.53;1.37;;;14.70;1.00;;;;;;5069342;28;20461;-63
2021/05/17 07:11:36;;;;;;;1.07;1.00;;;14.80;1.00;;;;;;5082354;28;20457;-58
2021/05/17 07:14:02;;;;;;;1.20;1.10;;;14.70;1.00;;;;;;5081984;28;20906;-57
2021/05/17 07:16:28;;;;;;;1.40;1.30;;;15.00;1.00;;;;;;5071328;28;20430;-58
2021/05/17 07:18:54;;;;;;;1.23;1.13;;;15.10;1.00;;;;;;5084175;28;20539;-58
2021/05/17 07:23:45;;;;;;;1.53;1.13;;;15.00;1.00;;;;;;5069739;28;20421;-61
2021/05/17 07:26:16;;;;;;;1.30;1.20;;;15.00;1.00;;;;;;5073098;28;20185;-59
2021/05/17 07:28:43;;;;;;;1.57;1.47;;;15.10;1.00;;;;;;5070960;28;20435;-59
2021/05/17 07:31:09;;;;;;;1.47;1.37;;;15.30;1.00;;;;;;5087924;28;20547;-58
2021/05/17 07:33:37;;;;;;;1.10;1.10;;;15.60;1.00;;;;;;5090241;28;20471;-59
2021/05/17 07:36:03;;;;;;;2.40;1.30;;;16.00;1.00;;;;;;5083055;28;20428;-58
2021/05/17 07:38:31;;;;;;;1.53;1.43;;;16.10;1.00;;;;;;5076738;28;20772;-59
2021/05/17 07:40:58;;;;;;;1.70;1.60;;;16.20;99.90;;;;;;5079207;28;20431;-62
2021/05/17 07:43:23;;;;;;;2.03;1.93;;;16.10;1.00;;;;;;5088697;28;20442;-56
2021/05/17 07:45:49;;;;;;;1.80;1.70;;;15.90;1.00;;;;;;5078477;28;20423;-61
2021/05/17 07:48:15;;;;;;;1.50;1.40;;;16.00;99.90;;;;;;5071800;28;20213;-58
2021/05/17 07:50:42;;;;;;;2.50;1.50;;;16.00;99.90;;;;;;5070040;28;20604;-59
2021/05/17 07:53:08;;;;;;;1.50;1.40;;;16.20;99.90;;;;;;5069183;28;20424;-59
2021/05/17 07:55:33;;;;;;;1.93;1.73;;;16.30;99.90;;;;;;5075190;28;20427;-62
2021/05/17 07:57:59;;;;;;;1.80;1.70;;;16.30;1.00;;;;;;5071863;28;20504;-60
2021/05/17 08:00:25;;;;;;;1.70;1.60;;;16.30;99.90;;;;;;5067019;28;20235;-61
2021/05/17 08:02:50;;;;;;;1.70;1.60;;;16.30;1.00;;;;;;5073786;28;20244;-60
2021/05/17 08:05:17;;;;;;;1.73;1.30;;;16.40;1.00;;;;;;5071198;28;20519;-60
2021/05/17 08:07:43;;;;;;;1.90;1.80;;;16.60;99.90;;;;;;5075236;28;20192;-64
2021/05/17 08:10:11;;;;;;;2.00;1.90;;;16.50;1.00;;;;;;5074889;28;20949;-58
2021/05/17 08:12:37;;;;;;;2.60;1.80;;;16.60;1.00;;;;;;5071846;28;20477;-59
2021/05/17 08:15:03;;;;;;;2.00;1.90;;;16.60;99.90;;;;;;5070383;28;20422;-60
2021/05/17 08:17:29;;;;;;;2.40;1.73;;;16.70;99.90;;;;;;5068109;28;20508;-58
2021/05/17 08:19:54;;;;;;;1.90;1.80;;;16.70;99.90;;;;;;5069435;28;20458;-60
2021/05/17 08:22:20;;;;;;;2.10;1.73;;;16.80;1.00;;;;;;5069182;28;20293;-60
2021/05/17 08:24:45;;;;;;;1.70;1.60;;;16.70;99.90;;;;;;5069423;28;20675;-60
2021/05/17 08:27:11;;;;;;;1.87;1.77;;;16.80;1.00;;;;;;5058861;28;20298;-57
2021/05/17 08:29:37;;;;;;;2.60;2.20;;;16.90;1.00;;;;;;5069953;28;20693;-60
2021/05/17 08:32:07;;;;;;;1.70;1.60;;;16.90;99.90;;;;;;5069367;28;20979;-60
2021/05/17 08:34:33;;;;;;;2.40;1.77;;;17.10;1.00;;;;;;5068488;28;20431;-59
2021/05/17 08:37:00;;;;;;;1.60;1.50;;;17.20;99.90;;;;;;5069454;28;20402;-58
2021/05/17 08:39:26;;;;;;;1.67;1.57;;;17.30;1.00;;;;;;5068037;28;20180;-59
2021/05/17 08:41:51;;;;;;;2.00;1.90;;;17.50;1.00;;;;;;5068620;28;20436;-59
2021/05/17 08:44:17;;;;;;;1.70;1.60;;;17.60;1.00;;;;;;5069151;28;20441;-58
2021/05/17 08:46:47;;;;;;;3.10;1.87;;;17.70;1.00;;;;;;5069526;28;20169;-59
2021/05/17 08:49:13;;;;;;;2.00;1.90;;;17.70;1.00;;;;;;5055429;28;20436;-59
2021/05/17 08:51:39;;;;;;;1.90;1.80;;;17.50;1.00;;;;;;5055828;28;20461;-57
2021/05/17 08:54:07;;;;;;;1.80;1.70;;;17.40;99.90;;;;;;5071065;28;20436;-59
2021/05/17 08:56:34;;;;;;;2.80;2.33;;;17.20;99.90;;;;;;5078408;28;20526;-59
2021/05/17 08:59:05;;;;;;;2.50;2.30;;;17.20;99.90;;;;;;5068176;28;20430;-59
2021/05/17 09:01:31;;;;;;;2.17;2.07;;;17.50;66.20;;;;;;5069064;28;20932;-59
2021/05/17 09:04:01;;;;;;;2.00;1.90;;;17.80;99.90;;;;;;5069118;28;20403;-59
2021/05/17 09:06:41;;;;;;;2.03;1.93;;;18.20;99.90;;;;;;5069122;28;20779;-58
2021/05/17 09:09:31;;;;;;;2.13;2.03;;;18.70;99.90;;;;;;5070871;28;20431;-60
2021/05/17 09:12:01;;;;;;;2.70;1.97;;;19.10;1.00;;;;;;5071597;28;20448;-59
2021/05/17 09:14:27;;;;;;;2.13;2.03;;;19.60;1.00;;;;;;5070378;28;20409;-59
2021/05/17 09:16:59;;;;;;;2.40;2.20;;;20.00;1.00;;;;;;5069025;28;20439;-57
2021/05/17 09:19:26;;;;;;;2.60;2.03;;;20.10;1.00;;;;;;5068628;28;20445;-58
2021/05/17 09:22:05;;;;;;;2.17;2.07;;;20.20;1.00;;;;;;5068677;28;20468;-58
2021/05/17 09:24:54;;;;;;;2.17;1.97;;;20.20;1.00;;;;;;5069680;28;20740;-56
2021/05/17 09:27:29;;;;;;;2.60;2.40;;;20.60;99.90;;;;;;5070280;28;20395;-60
2021/05/17 09:29:56;;;;;;;2.00;1.90;;;20.60;99.90;;;;;;5070153;28;20404;-58
2021/05/17 09:32:25;;;;;;;2.50;2.40;;;20.30;99.90;;;;;;5069369;28;20478;-58
2021/05/17 09:35:00;;;;;;;2.40;2.30;;;19.90;99.90;;;;;;5070114;28;20414;-58
2021/05/17 09:37:26;;;;;;;2.73;2.50;;;19.70;1.00;;;;;;5051225;28;20481;-57
2021/05/17 09:39:53;;;;;;;2.60;2.50;;;19.70;1.00;;;;;;5060798;28;20516;-56
2021/05/17 09:42:21;;;;;;;2.90;2.20;;;19.90;99.90;;;;;;5074472;28;20425;-61
2021/05/17 09:44:47;;;;;;;2.30;2.20;;;20.40;99.90;;;;;;5060511;28;20412;-53
2021/05/17 09:47:20;;;;;;;2.30;2.20;;;21.00;99.90;;;;;;5082441;28;20544;-58
2021/05/17 09:49:56;;;;;;;2.53;2.33;;;20.80;99.90;;;;;;5072038;28;20180;-59
2021/05/17 09:52:23;;;;;;;2.77;2.57;;;20.40;99.90;;;;;;5082947;28;20480;-58
2021/05/17 09:54:50;;;;;;;2.57;2.43;;;20.40;99.90;;;;;;5072949;28;20442;-57
2021/05/17 09:57:18;;;;;;;2.73;2.53;;;20.30;99.90;;;;;;5089664;28;20426;-55
2021/05/17 09:59:45;;;;;;;2.80;2.17;;;20.00;99.90;;;;;;5070391;28;20509;-58
2021/05/17 10:02:42;;;;;;;2.20;2.00;;;19.60;1.00;;;;;;5077688;28;20437;-59
2021/05/17 10:05:13;;;;;;;2.13;2.03;;;19.80;1.00;;;;;;5088428;28;20417;-58
2021/05/17 10:07:39;;;;;;;2.60;2.40;;;20.10;1.00;;;;;;5087991;28;20494;-58
2021/05/17 10:10:06;;;;;;;2.00;1.90;;;20.20;1.00;;;;;;5072579;28;20495;-58
2021/05/17 10:12:32;;;;;;;2.33;2.20;;;20.30;99.90;;;;;;5087871;28;20553;-55
2021/05/17 10:14:58;;;;;;;2.57;2.37;;;20.20;99.90;;;;;;5080916;28;20900;-55
2021/05/17 10:17:24;;;;;;;2.23;2.13;;;20.00;99.90;;;;;;5077196;28;20778;-59
2021/05/17 10:19:50;;;;;;;2.20;2.10;;;19.70;99.90;;;;;;5067011;28;20433;-58
2021/05/17 10:22:16;;;;;;;2.40;2.20;;;19.50;99.90;;;;;;5073198;28;20502;-59
2021/05/17 10:24:42;;;;;;;2.30;2.20;;;19.20;99.90;;;;;;5076107;28;20434;-57
2021/05/17 10:27:08;;;;;;;2.17;2.07;;;19.20;1.00;;;;;;5073016;28;20439;-58
2021/05/17 10:29:37;;;;;;;2.03;1.93;;;19.50;1.00;;;;;;5080012;28;20186;-58
2021/05/17 10:32:05;;;;;;;2.57;2.20;;;19.60;1.00;;;;;;5074163;28;20478;-62
2021/05/17 10:34:31;;;;;;;2.60;2.40;;;19.90;1.00;;;;;;5066637;28;20441;-61
2021/05/17 10:37:00;;;;;;;2.70;2.50;;;20.50;1.00;;;;;;5073177;28;20539;-58
2021/05/17 10:39:38;;;;;;;4.40;2.57;;;21.40;99.90;;;;;;5072947;28;20235;-59
2021/05/17 10:48:15;;;;;;;2.60;2.40;;;21.50;99.90;;;;;;5065693;28;20482;-58
2021/05/17 10:50:43;;;;;;;2.40;2.30;;;20.60;99.90;;;;;;5070280;28;20465;-60
2021/05/17 10:53:40;;;;;;;2.30;2.20;;;20.30;99.90;;;;;;5071497;28;20451;-56
2021/05/17 10:56:06;;;;;;;3.47;2.53;;;19.80;99.90;;;;;;5071108;28;20510;-56
2021/05/17 11:02:08;;;;;;;2.60;2.40;;;18.90;1.00;;;;;;5071135;28;20524;-58
2021/05/17 11:04:47;;;;;;;2.83;2.63;;;18.50;99.90;;;;;;5052217;28;21105;-61
2021/05/17 11:07:20;;;;;;;3.23;2.40;;;18.30;1.00;;;;;;5069723;28;20471;-59
2021/05/17 11:09:51;;;;;;;2.10;2.00;;;18.10;53.70;;;;;;5070492;28;20851;-59
2021/05/17 11:12:25;;;;;;;2.60;2.40;;;18.10;99.90;;;;;;5070445;28;20460;-59
2021/05/17 11:15:11;;;;;;;2.30;2.20;;;18.10;1.00;;;;;;5069260;28;20472;-59
2021/05/17 11:18:06;;;;;;;2.20;2.07;;;18.10;99.90;;;;;;5070645;28;20411;-60
2021/05/17 11:20:48;;;;;;;2.83;2.63;;;18.10;1.00;;;;;;5070143;28;21059;-60
2021/05/17 11:23:25;;;;;;;2.80;2.60;;;18.10;99.90;;;;;;5070349;28;20430;-59
2021/05/17 11:26:13;;;;;;;2.30;2.20;;;17.70;99.90;;;;;;5072358;28;20544;-57
2021/05/17 11:28:47;;;;;;;2.40;2.30;;;17.80;99.90;;;;;;5073258;28;20420;-59
2021/05/17 11:31:40;;;;;;;2.20;2.00;;;18.90;99.90;;;;;;5062093;28;20557;-56
2021/05/17 11:34:13;;;;;;;1.60;1.50;;;20.20;1.00;;;;;;5055752;28;20518;-57
2021/05/17 11:36:47;;;;;;;2.50;2.30;;;21.60;99.90;;;;;;5056103;28;20411;-57
2021/05/17 11:39:27;;;;;;;1.83;1.73;;;23.00;99.90;;;;;;5061052;28;20901;-61
2021/05/17 11:41:59;;;;;;;1.83;1.73;;;23.80;99.90;;;;;;5055336;28;20564;-59
2021/05/17 11:44:33;;;;;;;1.90;1.70;;;24.20;99.90;;;;;;5052266;28;20443;-60
2021/05/17 11:47:07;;;;;;;2.23;2.10;;;25.80;99.90;;;;;;5055273;28;20850;-57
2021/05/17 11:49:34;;;;;;;2.00;1.90;;;25.30;99.90;;;;;;5069596;28;20434;-58
2021/05/17 11:52:12;;;;;;;1.67;1.57;;;25.80;99.90;;;;;;5069804;28;20818;-60
2021/05/17 11:54:40;;;;;;;2.47;2.30;;;26.30;99.90;;;;;;5069777;28;20500;-57
2021/05/17 11:57:08;;;;;;;2.40;2.30;;;27.40;99.90;;;;;;5070550;28;20472;-57
2021/05/17 11:59:35;;;;;;;2.40;2.20;;;27.40;99.90;;;;;;5070165;28;20427;-59
2021/05/17 12:02:06;;;;;;;2.20;2.00;;;27.70;99.90;;;;;;5068500;28;21067;-59
2021/05/17 12:04:36;;;;;;;2.60;2.50;;;27.00;99.90;;;;;;5069639;28;20411;-59
2021/05/17 12:07:13;;;;;;;3.10;1.93;;;26.30;99.90;;;;;;5071365;28;20426;-60
2021/05/17 12:09:44;;;;;;;2.37;2.10;;;26.50;99.90;;;;;;5069709;28;20476;-59
2021/05/17 12:12:21;;;;;;;2.40;2.30;;;26.00;99.90;;;;;;5068412;28;20487;-60
2021/05/17 12:14:49;;;;;;;2.80;2.63;;;25.70;99.90;;;;;;5073669;28;20422;-61
2021/05/17 12:17:19;;;;;;;2.70;2.60;;;24.60;99.90;;;;;;5075034;28;20427;-60
2021/05/17 12:19:49;;;;;;;2.50;2.37;;;22.80;99.90;;;;;;5069294;28;20438;-61
2021/05/17 12:22:25;;;;;;;3.00;2.80;;;21.20;99.90;;;;;;5075503;28;20510;-55
2021/05/17 12:24:54;;;;;;;2.53;2.33;;;20.30;99.90;;;;;;5074826;28;21203;-57
2021/05/17 12:27:21;;;;;;;9.70;3.03;;;19.70;99.90;;;;;;5074686;28;20426;-59
2021/05/17 12:29:58;;;;;;;2.50;2.40;;;19.40;99.90;;;;;;5070838;28;20423;-63
2021/05/17 12:32:35;;;;;;;2.70;2.50;;;19.60;99.90;;;;;;5067070;28;20466;-60
2021/05/17 12:35:15;;;;;;;2.87;2.57;;;20.00;99.90;;;;;;5074992;28;20416;-61
2021/05/17 12:37:45;;;;;;;2.13;2.03;;;20.50;99.90;;;;;;5070768;28;20414;-61
2021/05/17 12:40:34;;;;;;;2.67;2.50;;;20.80;99.90;;;;;;5077130;28;20498;-62
2021/05/17 12:43:17;;;;;;;2.37;2.20;;;20.50;99.90;;;;;;5069045;28;20476;-61
2021/05/17 12:45:53;;;;;;;2.77;2.30;;;20.40;99.90;;;;;;5067923;28;20406;-60
2021/05/17 12:48:25;;;;;;;2.57;2.37;;;20.50;99.90;;;;;;5068353;28;20410;-62
2021/05/17 12:50:56;;;;;;;2.77;2.57;;;19.80;99.90;;;;;;5065835;28;20413;-60
2021/05/17 12:53:28;;;;;;;4.50;2.90;;;19.50;99.90;;;;;;5068346;28;20989;-60
2021/05/17 12:55:57;;;;;;;2.40;2.30;;;18.80;1.00;;;;;;5068653;28;20559;-59
2021/05/17 12:58:36;;;;;;;2.40;2.30;;;18.40;1.00;;;;;;5069154;28;20388;-57
2021/05/17 13:01:15;;;;;;;2.40;2.30;;;17.50;1.00;;;;;;5068844;28;20871;-59
2021/05/17 13:03:46;;;;;;;2.40;2.30;;;16.90;99.90;;;;;;5067841;28;21057;-58
2021/05/17 13:06:22;;;;;;;2.70;2.47;;;16.50;1.00;;;;;;5068551;28;20482;-56
2021/05/17 13:09:04;;;;;;;2.50;2.30;;;16.20;1.00;;;;;;5068621;28;20808;-57
2021/05/17 13:11:34;;;;;;;2.53;2.37;;;15.90;1.00;;;;;;5067037;28;20471;-58
2021/05/17 13:14:05;;;;;;;2.90;2.70;;;15.90;1.00;;;;;;5051255;28;20844;-58
2021/05/17 13:16:35;;;;;;;2.73;2.53;;;15.50;1.00;;;;;;5066774;28;20773;-58
2021/05/17 13:19:12;;;;;;;2.73;2.50;;;15.00;1.00;;;;;;5061952;28;20420;-55
2021/05/17 13:30:05;;;;;;;2.07;1.97;;;15.50;1.00;;;;;;5068919;28;20417;-58
2021/05/17 13:32:34;;;;;;;2.60;2.40;;;16.40;1.00;;;;;;5071520;28;21150;-56